»·PEaware :: N6380E KSMX-KBFL

N6380E :: KSMX-KBFL

FLIGHT INFORMATION

Flight Status: Arrived
Operator: Privately registered:
United States
More flights under this callsign
Pilot: Gary Y. (27964)
Aircraft: CESSNA 172 SKYHAWK
(C172)
More flights by this aircraft type
Origin: KSMX Santa Maria Pub/Capt Hancock
United States
Destination: KBFL Meadows
United States
More flights between these airports :: More routes between these airports
Route: +KSMX EHF KBFL
File this flight plan on PilotEdge
Remarks:
Altitude:
(Current/Filed)
7,000ft
Speed:
(Current/Filed)
110kts
Departed: 12-Feb-20 08:11 PM
Arrived: 12-Feb-20 08:51 PM
Distance/Time
Traveled:
76nm/0:40
Distance/Time
To Go:
Arrived

Flight Plot

Page will automatically refresh every two minutes.

Flight plan parsing failed; only flown route is shown


Map Options




Map Legend


Flown Route
Filed Route
Departure Airport
Arrival Airport
Navaid (VOR, NDB)
Fix

Horizontal Profiles

Position Reports

Time Latitude Longitude Heading Altitude Ground
Speed
12-Feb-20 20:00 34.895991 -120.445069 314 265ft 0kts
12-Feb-20 20:01 34.895991 -120.445069 314 265ft 0kts
12-Feb-20 20:02 34.895991 -120.445069 314 265ft 0kts
12-Feb-20 20:03 34.895991 -120.445069 314 265ft 0kts
12-Feb-20 20:04 34.895991 -120.445069 314 265ft 0kts
12-Feb-20 20:05 34.895991 -120.445069 314 265ft 0kts
12-Feb-20 20:06 34.895991 -120.445069 314 265ft 0kts
12-Feb-20 20:07 34.895708 -120.445433 140 265ft 8kts
12-Feb-20 20:08 34.893418 -120.445114 177 265ft 0kts
12-Feb-20 20:09 34.893380 -120.446744 315 265ft 39kts
12-Feb-20 20:10 34.899680 -120.463831 230 1193ft 68kts
12-Feb-20 20:11 34.897556 -120.447188 65 2048ft 81kts
12-Feb-20 20:12 34.908133 -120.419757 59 2860ft 96kts
12-Feb-20 20:13 34.919874 -120.389931 59 3658ft 98kts
12-Feb-20 20:14 34.931458 -120.360462 59 4445ft 95kts
12-Feb-20 20:15 34.942667 -120.331965 58 5235ft 92kts
12-Feb-20 20:16 34.953643 -120.304073 57 6024ft 89kts
12-Feb-20 20:17 34.964032 -120.277634 57 6805ft 83kts
12-Feb-20 20:18 34.973580 -120.253414 56 7485ft 86kts
12-Feb-20 20:19 34.987125 -120.218933 59 7491ft 126kts
12-Feb-20 20:20 35.002577 -120.179137 59 7489ft 130kts
12-Feb-20 20:21 35.018018 -120.139514 59 7626ft 122kts
12-Feb-20 20:22 35.033206 -120.100708 59 7622ft 132kts
12-Feb-20 20:23 35.049179 -120.059699 59 7488ft 131kts
12-Feb-20 20:24 35.064702 -120.019840 59 7489ft 129kts
12-Feb-20 20:25 35.080177 -119.980104 59 7489ft 130kts
12-Feb-20 20:26 35.095693 -119.940190 59 7489ft 130kts
12-Feb-20 20:27 35.111265 -119.900086 59 7492ft 130kts
12-Feb-20 20:28 35.126803 -119.860034 59 7491ft 130kts
12-Feb-20 20:29 35.142331 -119.819931 59 7491ft 130kts
12-Feb-20 20:30 35.157709 -119.780165 59 7537ft 129kts
12-Feb-20 20:31 35.173144 -119.740227 59 7537ft 130kts
12-Feb-20 20:32 35.188635 -119.700079 59 7537ft 130kts
12-Feb-20 20:33 35.204512 -119.658847 60 7204ft 137kts
12-Feb-20 20:34 35.220900 -119.616231 60 6712ft 139kts
12-Feb-20 20:35 35.237329 -119.573415 60 6218ft 138kts
12-Feb-20 20:37 35.253707 -119.530738 60 5724ft 138kts
12-Feb-20 20:38 35.270099 -119.487991 60 5230ft 139kts
12-Feb-20 20:39 35.286419 -119.445345 60 4736ft 137kts
12-Feb-20 20:40 35.302598 -119.403023 60 4299ft 134kts
12-Feb-20 20:41 35.318326 -119.361853 60 4003ft 132kts
12-Feb-20 20:42 35.333959 -119.320865 61 3705ft 133kts
12-Feb-20 20:43 35.349651 -119.279670 61 3390ft 134kts
12-Feb-20 20:44 35.365587 -119.237777 62 2992ft 136kts
12-Feb-20 20:45 35.381598 -119.195641 62 2594ft 137kts
12-Feb-20 20:46 35.397700 -119.153194 62 2195ft 137kts
12-Feb-20 20:47 35.413560 -119.111170 62 1768ft 124kts
12-Feb-20 20:48 35.417739 -119.076077 127 1615ft 105kts
12-Feb-20 20:49 35.405973 -119.050034 66 1409ft 87kts
12-Feb-20 20:50 35.422187 -119.046363 326 777ft 69kts
12-Feb-20 20:51 35.433412 -119.059244 316 481ft 31kts
12-Feb-20 20:52 35.435188 -119.059585 46 486ft 0kts
12-Feb-20 20:53 35.436351 -119.057332 85 493ft 9kts
12-Feb-20 20:54 35.435713 -119.055671 59 494ft 0kts

Navigation Log

Ident Type
Flight plan parsing failed, navigation log unavailable